createdAt,value
2015-12-04T00:00:11.225Z,1013.6
2015-12-04T00:01:11.166Z,1013.6
2015-12-04T00:02:11.123Z,1013.5
2015-12-04T00:03:10.283Z,1013.5
2015-12-04T00:04:11.005Z,1013.5
2015-12-04T00:05:10.929Z,1013.6
2015-12-04T00:06:10.885Z,1013.4
2015-12-04T00:07:10.825Z,1013.5
2015-12-04T00:08:10.969Z,1013.4
2015-12-04T00:09:10.704Z,1013.4
2015-12-04T00:10:10.645Z,1013.5
2015-12-04T00:11:10.585Z,1013.5
2015-12-04T00:12:10.542Z,1013.4
2015-12-04T00:13:10.482Z,1013.4
2015-12-04T00:14:10.423Z,1013.5
2015-12-04T00:15:10.379Z,1013.5
2015-12-04T00:16:10.303Z,1013.5
2015-12-04T00:17:10.258Z,1013.5
2015-12-04T00:18:10.211Z,1013.5
2015-12-04T00:19:10.139Z,1013.4
2015-12-04T00:20:10.094Z,1013.3
2015-12-04T00:21:10.035Z,1013.5
2015-12-04T00:22:09.975Z,1013.5
2015-12-04T00:23:09.930Z,1013.3
2015-12-04T00:24:09.871Z,1013.4
2015-12-04T00:25:09.808Z,1013.3
2015-12-04T00:26:09.752Z,1013.4
2015-12-04T00:27:09.707Z,1013.3
2015-12-04T00:28:09.647Z,1013.2
2015-12-04T00:29:09.588Z,1013.2
2015-12-04T00:30:09.552Z,1013.3
2015-12-04T00:31:09.333Z,1013.2
2015-12-04T00:32:09.418Z,1013.1
2015-12-04T00:33:09.374Z,1013.1
2015-12-04T00:34:09.315Z,1013.2
2015-12-04T00:35:09.270Z,1013.1
2015-12-04T00:36:09.209Z,1013.1
2015-12-04T00:37:09.150Z,1012.9
2015-12-04T00:38:09.087Z,1013
2015-12-04T00:39:09.031Z,1013.1
2015-12-04T00:40:08.970Z,1013
2015-12-04T00:41:08.942Z,1013.1
2015-12-04T00:42:08.883Z,1013
2015-12-04T00:43:08.806Z,1013.1
2015-12-04T00:44:08.763Z,1013
2015-12-04T00:45:08.684Z,1013.1
2015-12-04T00:46:08.627Z,1013
2015-12-04T00:47:08.567Z,1012.9
2015-12-04T00:48:08.507Z,1013
2015-12-04T00:49:08.448Z,1013.1
2015-12-04T00:50:08.388Z,1013.1
2015-12-04T00:51:08.344Z,1013.2
2015-12-04T00:52:08.282Z,1013.3
2015-12-04T00:53:08.223Z,1013.2
2015-12-04T00:54:08.165Z,1013.2
2015-12-04T00:55:08.120Z,1013.1
2015-12-04T00:56:08.045Z,1013.1
2015-12-04T00:57:08.001Z,1013.1
2015-12-04T00:58:07.938Z,1013.2
2015-12-04T00:59:07.880Z,1013.1
2015-12-04T01:00:07.836Z,1012.9
2015-12-04T01:01:07.777Z,1013
2015-12-04T01:02:07.717Z,1012.9
2015-12-04T01:03:07.657Z,1013.1
2015-12-04T01:04:07.598Z,1013
2015-12-04T01:05:07.538Z,1013
2015-12-04T01:06:07.476Z,1013
2015-12-04T01:07:07.416Z,1012.9
2015-12-04T01:08:07.389Z,1013
2015-12-04T01:09:07.314Z,1013
2015-12-04T01:10:07.286Z,1012.9
2015-12-04T01:11:07.195Z,1012.9
2015-12-04T01:12:07.150Z,1012.9
2015-12-04T01:13:07.088Z,1012.9
2015-12-04T01:14:07.045Z,1012.9
2015-12-04T01:15:07.064Z,1012.9
2015-12-04T01:16:06.927Z,1012.8
2015-12-04T01:17:06.867Z,1012.7
2015-12-04T01:18:06.808Z,1012.7
2015-12-04T01:19:05.997Z,1012.8
2015-12-04T01:20:06.719Z,1012.7
2015-12-04T01:21:06.641Z,1012.8
2015-12-04T01:22:06.581Z,1012.8
2015-12-04T01:23:06.709Z,1012.6
2015-12-04T01:24:06.461Z,1012.7
2015-12-04T01:25:06.404Z,1012.7
2015-12-04T01:26:06.329Z,1012.7
2015-12-04T01:27:06.284Z,1012.7
2015-12-04T01:28:06.224Z,1012.6
2015-12-04T01:29:06.180Z,1012.7
2015-12-04T01:30:06.120Z,1012.6
2015-12-04T01:31:06.264Z,1012.5
2015-12-04T01:32:05.998Z,1012.6
2015-12-04T01:33:05.940Z,1012.7
2015-12-04T01:34:05.897Z,1012.6
2015-12-04T01:35:05.837Z,1012.6
2015-12-04T01:36:05.777Z,1012.5
2015-12-04T01:37:05.717Z,1012.6
2015-12-04T01:38:05.673Z,1012.5
2015-12-04T01:39:05.595Z,1012.5
2015-12-04T01:40:05.538Z,1012.5
2015-12-04T01:41:05.494Z,1012.4
2015-12-04T01:42:05.434Z,1012.4
2015-12-04T01:43:05.374Z,1012.4
2015-12-04T01:44:05.314Z,1012.4
2015-12-04T01:45:05.270Z,1012.3
2015-12-04T01:46:05.208Z,1012.3
2015-12-04T01:47:05.149Z,1012.4
2015-12-04T01:48:05.106Z,1012.3
2015-12-04T01:49:05.031Z,1012.4
2015-12-04T01:50:05.002Z,1012.5
2015-12-04T01:51:04.943Z,1012.3
2015-12-04T01:52:04.883Z,1012.4
2015-12-04T01:53:04.821Z,1012.4
2015-12-04T01:54:04.763Z,1012.4
2015-12-04T01:55:04.703Z,1012.5
2015-12-04T01:56:04.675Z,1012.4
2015-12-04T01:57:04.599Z,1012.4
2015-12-04T01:58:04.586Z,1012.3
2015-12-04T01:59:04.496Z,1012.4
2015-12-04T02:00:04.435Z,1012.3
2015-12-04T02:01:04.404Z,1012.2
2015-12-04T02:02:04.300Z,1012.3
2015-12-04T02:03:04.240Z,1012.3
2015-12-04T02:04:04.196Z,1012.3
2015-12-04T02:05:04.136Z,1012.2
2015-12-04T02:06:04.092Z,1012.2
2015-12-04T02:07:04.048Z,1012.2
2015-12-04T02:08:03.986Z,1012.2
2015-12-04T02:09:03.942Z,1012.2
2015-12-04T02:10:03.869Z,1012.2
2015-12-04T02:11:03.808Z,1012.1
2015-12-04T02:12:03.780Z,1012.2
2015-12-04T02:13:03.908Z,1012.2
2015-12-04T02:14:03.661Z,1012
2015-12-04T02:15:03.601Z,1012
2015-12-04T02:16:03.539Z,1012.2
2015-12-04T02:17:03.480Z,1012.1
2015-12-04T02:18:03.436Z,1012
2015-12-04T02:19:03.377Z,1012
2015-12-04T02:20:03.316Z,1012.1
2015-12-04T02:21:03.273Z,1012.2
2015-12-04T02:22:03.213Z,1012
2015-12-04T02:23:03.169Z,1012.1
2015-12-04T02:24:03.109Z,1011.9
2015-12-04T02:25:03.046Z,1012
2015-12-04T02:26:03.004Z,1011.8
2015-12-04T02:27:02.946Z,1011.9
2015-12-04T02:28:02.886Z,1011.8
2015-12-04T02:29:02.841Z,1011.9
2015-12-04T02:30:02.782Z,1011.8
2015-12-04T02:31:02.722Z,1011.7
2015-12-04T02:32:02.676Z,1011.7
2015-12-04T02:33:02.601Z,1011.7
2015-12-04T02:34:02.558Z,1011.7
2015-12-04T02:35:02.498Z,1011.7
2015-12-04T02:36:02.453Z,1011.7
2015-12-04T02:37:01.644Z,1011.6
2015-12-04T02:38:02.334Z,1011.6
2015-12-04T02:39:02.275Z,1011.6
2015-12-04T02:40:02.228Z,1011.6
2015-12-04T02:41:02.232Z,1011.6
2015-12-04T02:42:02.095Z,1011.5
2015-12-04T02:43:02.051Z,1011.7
2015-12-04T02:44:01.991Z,1011.5
2015-12-04T02:45:01.931Z,1011.7
2015-12-04T02:46:01.872Z,1011.6
2015-12-04T02:47:01.809Z,1011.5
2015-12-04T02:48:01.749Z,1011.6
2015-12-04T02:49:01.690Z,1011.7
2015-12-04T02:50:01.647Z,1011.6
2015-12-04T02:51:01.588Z,1011.5
2015-12-04T02:52:01.528Z,1011.6
2015-12-04T02:53:01.485Z,1011.4
2015-12-04T02:54:01.424Z,1011.5
2015-12-04T02:55:01.362Z,1011.5
2015-12-04T02:56:01.318Z,1011.5
2015-12-04T02:57:01.259Z,1011.4
2015-12-04T02:58:00.451Z,1011.5
2015-12-04T02:59:01.157Z,1011.5
2015-12-04T03:00:01.082Z,1011.6
2015-12-04T03:01:01.021Z,1011.6
2015-12-04T03:02:00.977Z,1011.6
2015-12-04T03:03:00.933Z,1011.6
2015-12-04T03:04:00.855Z,1011.5
2015-12-04T03:05:00.811Z,1011.3
2015-12-04T03:06:00.767Z,1011.5
2015-12-04T03:07:00.693Z,1011.4
2015-12-04T03:08:00.650Z,1011.3
2015-12-04T03:09:00.590Z,1011.4
2015-12-04T03:10:00.530Z,1011.3
2015-12-04T03:11:00.486Z,1011.3
2015-12-04T03:12:00.423Z,1011.2
2015-12-04T03:13:00.364Z,1011.3
2015-12-04T03:14:00.320Z,1011.3
2015-12-04T03:15:00.262Z,1011.4
2015-12-04T03:16:00.202Z,1011.2
2015-12-04T03:17:00.142Z,1011.3
2015-12-04T03:18:00.098Z,1011
2015-12-04T03:19:00.039Z,1011
2015-12-04T03:19:59.978Z,1011
2015-12-04T03:20:59.900Z,1010.9
2015-12-04T03:21:59.857Z,1011.1
2015-12-04T03:22:59.984Z,1010.9
2015-12-04T03:23:59.739Z,1010.9
2015-12-04T03:24:59.695Z,1010.9
2015-12-04T03:25:59.619Z,1011
2015-12-04T03:26:59.576Z,1010.8
2015-12-04T03:27:59.516Z,1010.8
2015-12-04T03:28:59.454Z,1011
2015-12-04T03:29:59.393Z,1011
2015-12-04T03:30:59.335Z,1010.9
2015-12-04T03:31:59.290Z,1011
2015-12-04T03:32:59.232Z,1011
2015-12-04T03:33:59.188Z,1011
2015-12-04T03:34:59.129Z,1011.1
2015-12-04T03:35:59.068Z,1011
2015-12-04T03:36:59.006Z,1011
2015-12-04T03:37:58.962Z,1010.9
2015-12-04T03:38:58.902Z,1010.8
2015-12-04T03:39:58.876Z,1010.8
2015-12-04T03:40:58.800Z,1010.8
2015-12-04T03:41:58.741Z,1010.8
2015-12-04T03:42:58.681Z,1010.8
2015-12-04T03:43:58.621Z,1010.9
2015-12-04T03:44:58.592Z,1010.9
2015-12-04T03:45:58.530Z,1010.7
2015-12-04T03:46:58.471Z,1010.9
2015-12-04T03:47:58.428Z,1010.9
2015-12-04T03:48:58.369Z,1010.8
2015-12-04T03:49:58.308Z,1010.9
2015-12-04T03:50:58.249Z,1010.8
2015-12-04T03:51:58.204Z,1010.9
2015-12-04T03:52:58.176Z,1010.8
2015-12-04T03:53:58.082Z,1010.8
2015-12-04T03:54:58.039Z,1010.8
2015-12-04T03:55:57.214Z,1010.7
2015-12-04T03:56:57.935Z,1010.8
2015-12-04T03:57:57.860Z,1010.8
2015-12-04T03:58:57.801Z,1010.7
2015-12-04T03:59:57.601Z,1010.8
2015-12-04T04:00:57.682Z,1010.6
2015-12-04T04:01:57.638Z,1010.7
2015-12-04T04:02:57.610Z,1010.6
2015-12-04T04:03:57.532Z,1010.5
2015-12-04T04:04:57.458Z,1010.5
2015-12-04T04:05:57.413Z,1010.5
2015-12-04T04:06:57.353Z,1010.5
2015-12-04T04:07:57.387Z,1010.4
2015-12-04T04:08:57.249Z,1010.5
2015-12-04T04:09:57.190Z,1010.4
2015-12-04T04:10:57.160Z,1010.3
2015-12-04T04:11:57.085Z,1010.4
2015-12-04T04:12:57.040Z,1010.3
2015-12-04T04:13:56.981Z,1010.3
2015-12-04T04:14:56.921Z,1010.3
2015-12-04T04:15:56.862Z,1010.3
2015-12-04T04:16:57.005Z,1010.3
2015-12-04T04:17:56.757Z,1010.3
2015-12-04T04:18:56.870Z,1010.3
2015-12-04T04:19:56.637Z,1010.4
2015-12-04T04:20:56.595Z,1010.4
2015-12-04T04:21:56.551Z,1010.3
2015-12-04T04:22:56.476Z,1010.4
2015-12-04T04:23:56.416Z,1010.3
2015-12-04T04:24:56.387Z,1010.3
2015-12-04T04:25:56.343Z,1010.3
2015-12-04T04:26:56.265Z,1010.4
2015-12-04T04:27:56.222Z,1010.3
2015-12-04T04:28:56.163Z,1010.3
2015-12-04T04:29:56.103Z,1010.4
2015-12-04T04:30:56.043Z,1010.4
2015-12-04T04:31:56.000Z,1010.4
2015-12-04T04:32:55.939Z,1010.4
2015-12-04T04:33:55.895Z,1010.4
2015-12-04T04:34:55.835Z,1010.3
2015-12-04T04:35:55.760Z,1010.3
2015-12-04T04:36:55.700Z,1010.3
2015-12-04T04:37:55.641Z,1010.3
2015-12-04T04:38:55.596Z,1010.3
2015-12-04T04:39:55.536Z,1010.4
2015-12-04T04:40:55.507Z,1010.4
2015-12-04T04:41:55.480Z,1010.5
2015-12-04T04:42:55.388Z,1010.5
2015-12-04T04:43:55.313Z,1010.5
2015-12-04T04:44:55.252Z,1010.3
2015-12-04T04:45:55.208Z,1010.4
2015-12-04T04:46:55.149Z,1010.3
2015-12-04T04:47:55.105Z,1010.4
2015-12-04T04:48:55.045Z,1010.4
2015-12-04T04:49:54.985Z,1010.3
2015-12-04T04:50:54.926Z,1010.5
2015-12-04T04:51:54.881Z,1010.6
2015-12-04T04:52:54.822Z,1010.5
2015-12-04T04:53:54.762Z,1010.5
2015-12-04T04:54:54.717Z,1010.5
2015-12-04T04:55:54.657Z,1010.5
2015-12-04T04:56:54.598Z,1010.4
2015-12-04T04:57:54.554Z,1010.4
2015-12-04T04:58:54.493Z,1010.5
2015-12-04T04:59:54.434Z,1010.3
2015-12-04T05:00:54.390Z,1010.4
2015-12-04T05:01:54.362Z,1010.4
2015-12-04T05:02:54.286Z,1010.3
2015-12-04T05:03:54.242Z,1010.4
2015-12-04T05:04:54.167Z,1010.3
2015-12-04T05:05:53.356Z,1010.2
2015-12-04T05:06:54.063Z,1010.3
2015-12-04T05:07:54.001Z,1010.3
2015-12-04T05:08:53.956Z,1010.2
2015-12-04T05:09:53.914Z,1010.3
2015-12-04T05:10:53.839Z,1010.2
2015-12-04T05:11:53.778Z,1010.2
2015-12-04T05:12:53.735Z,1010.1
2015-12-04T05:13:53.691Z,1010.2
2015-12-04T05:14:53.630Z,1010.3
2015-12-04T05:15:53.552Z,1010.2
2015-12-04T05:16:53.494Z,1010.1
2015-12-04T05:17:53.667Z,1010.2
2015-12-04T05:18:53.389Z,1010.2
2015-12-04T05:19:53.330Z,1010.2
2015-12-04T05:20:53.269Z,1010.2
2015-12-04T05:21:53.227Z,1010.3
2015-12-04T05:22:53.168Z,1010.1
2015-12-04T05:23:53.124Z,1010.3
2015-12-04T05:24:53.049Z,1010.2
2015-12-04T05:25:53.191Z,1010.3
2015-12-04T05:26:52.941Z,1010.2
2015-12-04T05:27:52.882Z,1010.2
2015-12-04T05:28:52.838Z,1010.4
2015-12-04T05:29:52.029Z,1010.3
2015-12-04T05:30:52.715Z,1010.4
2015-12-04T05:31:52.658Z,1010.3
2015-12-04T05:32:52.586Z,1010.3
2015-12-04T05:33:52.505Z,1010.2
2015-12-04T05:34:52.449Z,1010.3
2015-12-04T05:35:52.385Z,1010.2
2015-12-04T05:36:52.322Z,1010.3
2015-12-04T05:37:52.257Z,1010.2
2015-12-04T05:38:52.209Z,1010.2
2015-12-04T05:39:52.143Z,1010.3
2015-12-04T05:40:52.080Z,1010.3
2015-12-04T05:41:52.051Z,1010.2
2015-12-04T05:42:51.989Z,1010.3
2015-12-04T05:43:51.929Z,1010.3
2015-12-04T05:44:51.867Z,1010.1
2015-12-04T05:45:51.807Z,1010.1
2015-12-04T05:46:51.744Z,1010.2
2015-12-04T05:47:51.700Z,1010.2
2015-12-04T05:48:51.641Z,1010.2
2015-12-04T05:49:51.596Z,1010.2
2015-12-04T05:50:51.521Z,1010.1
2015-12-04T05:51:51.476Z,1010.1
2015-12-04T05:52:51.603Z,1010.2
2015-12-04T05:53:51.355Z,1010.1
2015-12-04T05:54:50.545Z,1010.1
2015-12-04T05:55:51.237Z,1010.2
2015-12-04T05:56:51.193Z,1010.2
2015-12-04T05:57:51.133Z,1010.2
2015-12-04T05:58:51.073Z,1010.2
2015-12-04T05:59:51.014Z,1010.3
2015-12-04T06:00:50.968Z,1010.2
2015-12-04T06:01:50.908Z,1010.2
2015-12-04T06:02:50.849Z,1010.2
2015-12-04T06:03:50.789Z,1010.1
2015-12-04T06:04:50.746Z,1010.2
2015-12-04T06:05:50.687Z,1010.3
2015-12-04T06:06:50.626Z,1010.3
2015-12-04T06:07:50.582Z,1010.3
2015-12-04T06:08:50.523Z,1010.4
2015-12-04T06:09:50.460Z,1010.3
2015-12-04T06:10:50.416Z,1010.4
2015-12-04T06:11:50.358Z,1010.3
2015-12-04T06:12:50.297Z,1010.3
2015-12-04T06:13:50.254Z,1010.4
2015-12-04T06:14:50.178Z,1010.4
2015-12-04T06:15:50.135Z,1010.3
2015-12-04T06:16:50.074Z,1010.4
2015-12-04T06:17:50.030Z,1010.3
2015-12-04T06:18:49.971Z,1010.3
2015-12-04T06:19:49.926Z,1010.3
2015-12-04T06:20:49.866Z,1010.3
2015-12-04T06:21:49.806Z,1010.4
2015-12-04T06:22:49.747Z,1010.4
2015-12-04T06:23:49.719Z,1010.4
2015-12-04T06:24:49.660Z,1010.3
2015-12-04T06:25:49.583Z,1010.5
2015-12-04T06:26:49.540Z,1010.5
2015-12-04T06:27:49.511Z,1010.5
2015-12-04T06:28:49.418Z,1010.4
2015-12-04T06:29:49.375Z,1010.5
2015-12-04T06:30:49.316Z,1010.5
2015-12-04T06:31:49.271Z,1010.5
2015-12-04T06:32:49.196Z,1010.4
2015-12-04T06:33:49.137Z,1010.4
2015-12-04T06:34:49.077Z,1010.4
2015-12-04T06:35:49.015Z,1010.3
2015-12-04T06:36:48.971Z,1010.5
2015-12-04T06:37:48.912Z,1010.4
2015-12-04T06:38:48.868Z,1010.5
2015-12-04T06:39:48.809Z,1010.5
2015-12-04T06:40:48.748Z,1010.5
2015-12-04T06:41:48.689Z,1010.5
2015-12-04T06:42:48.629Z,1010.6
2015-12-04T06:43:48.585Z,1010.6
2015-12-04T06:44:48.522Z,1010.5
2015-12-04T06:45:48.480Z,1010.7
2015-12-04T06:46:48.422Z,1010.6
2015-12-04T06:47:48.565Z,1010.7
2015-12-04T06:48:48.303Z,1010.7
2015-12-04T06:49:48.242Z,1010.7
2015-12-04T06:50:48.198Z,1010.7
2015-12-04T06:51:48.153Z,1010.7
2015-12-04T06:52:48.075Z,1010.7
2015-12-04T06:53:48.033Z,1010.7
2015-12-04T06:54:47.991Z,1010.8
2015-12-04T06:55:47.930Z,1010.9
2015-12-04T06:56:47.870Z,1010.7
2015-12-04T06:57:47.826Z,1010.7
2015-12-04T06:58:47.751Z,1010.7
2015-12-04T06:59:47.722Z,1010.8
2015-12-04T07:00:47.660Z,1010.9
2015-12-04T07:01:47.617Z,1011.1
2015-12-04T07:02:47.574Z,1011.1
2015-12-04T07:03:47.561Z,1011
2015-12-04T07:04:47.438Z,1011.1
2015-12-04T07:05:47.395Z,1011.2
2015-12-04T07:06:47.318Z,1011.2
2015-12-04T07:07:47.290Z,1011
2015-12-04T07:08:47.212Z,1011
2015-12-04T07:09:47.154Z,1011.2
2015-12-04T07:10:47.126Z,1011
2015-12-04T07:11:47.036Z,1011.1
2015-12-04T07:12:46.992Z,1011.1
2015-12-04T07:13:46.932Z,1011.2
2015-12-04T07:14:46.870Z,1011.3
2015-12-04T07:15:46.825Z,1011.2
2015-12-04T07:16:46.766Z,1011.3
2015-12-04T07:17:46.708Z,1011.2
2015-12-04T07:18:46.664Z,1011.3
2015-12-04T07:19:46.604Z,1011.2
2015-12-04T07:20:46.560Z,1011.2
2015-12-04T07:21:46.500Z,1011.3
2015-12-04T07:22:46.438Z,1011.4
2015-12-04T07:23:46.378Z,1011.4
2015-12-04T07:24:46.333Z,1011.6
2015-12-04T07:25:46.277Z,1011.6
2015-12-04T07:26:46.216Z,1011.7
2015-12-04T07:27:46.188Z,1011.7
2015-12-04T07:28:46.113Z,1011.6
2015-12-04T07:29:46.053Z,1011.6
2015-12-04T07:30:46.006Z,1011.6
2015-12-04T07:31:45.947Z,1011.6
2015-12-04T07:32:45.966Z,1011.7
2015-12-04T07:33:45.843Z,1011.8
2015-12-04T07:34:45.783Z,1011.6
2015-12-04T07:35:45.739Z,1011.7
2015-12-04T07:36:45.679Z,1011.6
2015-12-04T07:37:45.619Z,1011.8
2015-12-04T07:38:45.575Z,1011.6
2015-12-04T07:39:45.516Z,1011.5
2015-12-04T07:40:45.460Z,1011.5
2015-12-04T07:41:45.401Z,1011.6
2015-12-04T07:42:45.357Z,1011.6
2015-12-04T07:43:45.281Z,1011.5
2015-12-04T07:44:45.222Z,1011.7
2015-12-04T07:45:45.177Z,1011.7
2015-12-04T07:46:45.118Z,1011.8
2015-12-04T07:47:45.058Z,1011.7
2015-12-04T07:48:45.013Z,1011.7
2015-12-04T07:49:44.954Z,1011.9
2015-12-04T07:50:44.895Z,1011.9
2015-12-04T07:51:44.836Z,1011.9
2015-12-04T07:52:44.791Z,1011.9
2015-12-04T07:53:44.747Z,1011.9
2015-12-04T07:54:44.702Z,1012.1
2015-12-04T07:55:44.624Z,1012
2015-12-04T07:56:52.443Z,1012.1
2015-12-04T07:57:44.521Z,1012
2015-12-04T07:58:44.448Z,1012.1
2015-12-04T07:59:44.388Z,1012.2
2015-12-04T08:00:44.344Z,1012.1
2015-12-04T08:01:44.284Z,1012
2015-12-04T08:02:44.240Z,1012.2
2015-12-04T08:03:44.180Z,1012.1
2015-12-04T08:04:44.121Z,1012.1
2015-12-04T08:05:44.076Z,1012.2
2015-12-04T08:06:44.029Z,1012.3
2015-12-04T08:07:43.954Z,1012.2
2015-12-04T08:08:43.895Z,1012.2
2015-12-04T08:09:44.037Z,1012.2
2015-12-04T08:10:43.790Z,1012.2
2015-12-04T08:11:43.715Z,1012.2
2015-12-04T08:12:43.689Z,1012.3
2015-12-04T08:13:43.614Z,1012.2
2015-12-04T08:14:43.569Z,1012.3
2015-12-04T08:15:43.509Z,1012.3
2015-12-04T08:16:43.465Z,1012.4
2015-12-04T08:17:43.405Z,1012.4
2015-12-04T08:18:42.592Z,1012.3
2015-12-04T08:19:43.300Z,1012.3
2015-12-04T08:20:43.240Z,1012.5
2015-12-04T08:21:43.181Z,1012.3
2015-12-04T08:22:43.137Z,1012.4
2015-12-04T08:23:43.077Z,1012.4
2015-12-04T08:24:43.018Z,1012.4
2015-12-04T08:25:42.958Z,1012.5
2015-12-04T08:26:42.898Z,1012.5
2015-12-04T08:27:42.854Z,1012.4
2015-12-04T08:28:42.791Z,1012.4
2015-12-04T08:29:42.748Z,1012.5
2015-12-04T08:30:42.689Z,1012.5
2015-12-04T08:31:42.628Z,1012.5
2015-12-04T08:32:42.569Z,1012.5
2015-12-04T08:33:42.508Z,1012.5
2015-12-04T08:34:42.466Z,1012.5
2015-12-04T08:35:42.421Z,1012.6
2015-12-04T08:36:42.361Z,1012.5
2015-12-04T08:37:42.301Z,1012.4
2015-12-04T08:38:42.257Z,1012.6
2015-12-04T08:39:42.198Z,1012.6
2015-12-04T08:40:42.139Z,1012.6
2015-12-04T08:41:42.079Z,1012.7
2015-12-04T08:42:42.035Z,1012.5
2015-12-04T08:43:41.975Z,1012.6
2015-12-04T08:44:41.912Z,1012.6
2015-12-04T08:45:41.853Z,1012.7
2015-12-04T08:46:41.810Z,1012.7
2015-12-04T08:47:41.751Z,1012.8
2015-12-04T08:48:41.708Z,1012.7
2015-12-04T08:49:41.633Z,1012.8
2015-12-04T08:50:41.588Z,1012.8
2015-12-04T08:51:41.544Z,1012.8
2015-12-04T08:52:41.484Z,1012.9
2015-12-04T08:53:41.439Z,1012.8
2015-12-04T08:54:41.350Z,1012.7
2015-12-04T08:55:41.307Z,1012.9
2015-12-04T08:56:41.263Z,1012.8
2015-12-04T08:57:41.203Z,1012.8
2015-12-04T08:58:41.144Z,1012.8
2015-12-04T08:59:41.084Z,1012.9
2015-12-04T09:00:41.040Z,1012.8
2015-12-04T09:01:40.977Z,1012.7
2015-12-04T09:02:40.933Z,1012.8
2015-12-04T09:03:40.875Z,1012.8
2015-12-04T09:04:40.817Z,1012.9
2015-12-04T09:05:40.773Z,1012.9
2015-12-04T09:06:40.713Z,1012.8
2015-12-04T09:07:40.652Z,1012.8
2015-12-04T09:08:40.624Z,1012.8
2015-12-04T09:09:40.546Z,1012.9
2015-12-04T09:10:40.486Z,1012.8
2015-12-04T09:11:40.632Z,1013
2015-12-04T09:12:40.385Z,1012.9
2015-12-04T09:13:40.326Z,1012.9
2015-12-04T09:14:40.282Z,1012.8
2015-12-04T09:15:40.221Z,1012.9
2015-12-04T09:16:40.159Z,1013
2015-12-04T09:17:40.099Z,1013.1
2015-12-04T09:18:40.073Z,1013
2015-12-04T09:19:39.998Z,1013
2015-12-04T09:20:39.953Z,1013.1
2015-12-04T09:21:39.893Z,1013.2
2015-12-04T09:22:39.834Z,1013.1
2015-12-04T09:23:39.790Z,1013.1
2015-12-04T09:24:39.712Z,1013.1
2015-12-04T09:25:39.668Z,1013.1
2015-12-04T09:26:39.624Z,1013.1
2015-12-04T09:27:39.564Z,1013.1
2015-12-04T09:28:39.707Z,1013.1
2015-12-04T09:29:39.461Z,1013.1
2015-12-04T09:30:39.401Z,1013.1
2015-12-04T09:31:39.340Z,1013.2
2015-12-04T09:32:39.282Z,1013.2
2015-12-04T09:33:39.222Z,1013.2
2015-12-04T09:34:39.178Z,1013.2
2015-12-04T09:35:39.135Z,1013.2
2015-12-04T09:36:39.090Z,1013.2
2015-12-04T09:37:39.030Z,1013.2
2015-12-04T09:38:38.955Z,1013.3
2015-12-04T09:39:38.911Z,1013.4
2015-12-04T09:40:38.849Z,1013.3
2015-12-04T09:41:38.789Z,1013.3
2015-12-04T09:42:38.731Z,1013.2
2015-12-04T09:43:38.687Z,1013.4
2015-12-04T09:44:38.815Z,1013.3
2015-12-04T09:45:38.568Z,1013.2
2015-12-04T09:46:38.508Z,1013.3
2015-12-04T09:47:38.463Z,1013.3
2015-12-04T09:48:38.401Z,1013.3
2015-12-04T09:49:38.342Z,1013.4
2015-12-04T09:50:38.299Z,1013.5
2015-12-04T09:51:38.098Z,1013.4
2015-12-04T09:52:38.195Z,1013.5
2015-12-04T09:53:38.135Z,1013.4
2015-12-04T09:54:38.075Z,1013.5
2015-12-04T09:55:38.016Z,1013.4
2015-12-04T09:56:37.956Z,1013.5
2015-12-04T09:57:37.897Z,1013.4
2015-12-04T09:58:37.306Z,1013.5
2015-12-04T09:59:37.793Z,1013.7
2015-12-04T10:00:37.731Z,1013.6
2015-12-04T10:01:37.689Z,1013.5
2015-12-04T10:02:37.628Z,1013.6
2015-12-04T10:03:37.585Z,1013.5
2015-12-04T10:04:37.509Z,1013.4
2015-12-04T10:05:37.466Z,1013.6
2015-12-04T10:06:37.405Z,1013.7
2015-12-04T10:07:37.343Z,1013.7
2015-12-04T10:08:37.299Z,1013.7
2015-12-04T10:09:37.239Z,1013.6
2015-12-04T10:10:37.182Z,1013.7
2015-12-04T10:11:37.138Z,1013.8
2015-12-04T10:12:37.077Z,1013.8
2015-12-04T10:13:37.017Z,1013.8
2015-12-04T10:14:36.957Z,1013.8
2015-12-04T10:15:37.101Z,1013.7
2015-12-04T10:16:36.851Z,1013.8
2015-12-04T10:17:36.793Z,1013.9
2015-12-04T10:18:36.749Z,1013.8
2015-12-04T10:19:36.690Z,1013.9
2015-12-04T10:20:36.630Z,1014
2015-12-04T10:21:36.570Z,1014.1
2015-12-04T10:22:36.369Z,1014
2015-12-04T10:23:36.466Z,1014.1
2015-12-04T10:24:36.625Z,1014
2015-12-04T10:25:36.362Z,1013.9
2015-12-04T10:26:36.303Z,1013.9
2015-12-04T10:27:36.242Z,1014.1
2015-12-04T10:28:36.417Z,1014
2015-12-04T10:29:36.122Z,1014
2015-12-04T10:30:36.078Z,1014.1
2015-12-04T10:31:36.019Z,1014.1
2015-12-04T10:32:35.975Z,1014
2015-12-04T10:33:35.916Z,1014
2015-12-04T10:34:35.855Z,1013.9
2015-12-04T10:35:35.795Z,1014
2015-12-04T10:36:35.732Z,1013.9
2015-12-04T10:37:35.924Z,1013.9
2015-12-04T10:38:35.629Z,1013.9
2015-12-04T10:39:35.601Z,1013.9
2015-12-04T10:40:35.541Z,1013.9
2015-12-04T10:41:35.481Z,1013.9
2015-12-04T10:42:35.406Z,1013.9
2015-12-04T10:43:35.346Z,1013.8
2015-12-04T10:44:35.302Z,1013.9
2015-12-04T10:45:35.242Z,1013.7
2015-12-04T10:46:35.183Z,1013.8
2015-12-04T10:47:35.139Z,1013.9
2015-12-04T10:48:35.080Z,1013.7
2015-12-04T10:49:35.019Z,1013.7
2015-12-04T10:50:34.961Z,1013.8
2015-12-04T10:51:34.900Z,1013.9
2015-12-04T10:52:34.856Z,1014
2015-12-04T10:53:34.796Z,1014
2015-12-04T10:54:34.736Z,1014
2015-12-04T10:55:34.691Z,1014.1
2015-12-04T10:56:34.629Z,1014.1
2015-12-04T10:57:34.570Z,1014.3
2015-12-04T10:58:34.528Z,1014.3
2015-12-04T10:59:34.469Z,1014.3
2015-12-04T11:00:34.612Z,1014.4
2015-12-04T11:01:34.364Z,1014.3
2015-12-04T11:02:34.288Z,1014.5
2015-12-04T11:03:34.245Z,1014.6
2015-12-04T11:04:34.182Z,1014.5
2015-12-04T11:05:34.124Z,1014.5
2015-12-04T11:06:34.065Z,1014.6
2015-12-04T11:07:34.006Z,1014.6
2015-12-04T11:08:33.962Z,1014.5
2015-12-04T11:09:33.918Z,1014.5
2015-12-04T11:10:33.857Z,1014.5
2015-12-04T11:11:33.797Z,1014.6
2015-12-04T11:12:33.750Z,1014.5
2015-12-04T11:13:33.691Z,1014.7
2015-12-04T11:14:33.650Z,1014.8
2015-12-04T11:15:33.589Z,1014.8
2015-12-04T11:16:33.530Z,1014.7
2015-12-04T11:17:33.470Z,1014.7
2015-12-04T11:18:32.644Z,1014.6
2015-12-04T11:19:33.366Z,1014.8
2015-12-04T11:20:33.306Z,1014.7
2015-12-04T11:21:33.259Z,1014.6
2015-12-04T11:22:33.214Z,1014.7
2015-12-04T11:23:33.140Z,1014.7
2015-12-04T11:24:33.111Z,1014.6
2015-12-04T11:25:33.038Z,1014.8
2015-12-04T11:26:32.993Z,1014.8
2015-12-04T11:27:32.935Z,1014.8
2015-12-04T11:28:32.874Z,1014.8
2015-12-04T11:29:32.812Z,1014.8
2015-12-04T11:30:32.783Z,1014.7
2015-12-04T11:31:32.708Z,1014.8
2015-12-04T11:32:32.666Z,1014.9
2015-12-04T11:33:32.621Z,1014.9
2015-12-04T11:34:32.954Z,1014.8
2015-12-04T11:35:32.502Z,1014.9
2015-12-04T11:36:32.662Z,1014.9
2015-12-04T11:37:32.398Z,1015
2015-12-04T11:38:32.339Z,1015.1
2015-12-04T11:39:32.276Z,1015
2015-12-04T11:40:32.250Z,1014.9
2015-12-04T11:41:32.175Z,1015.1
2015-12-04T11:42:32.115Z,1014.9
2015-12-04T11:43:32.056Z,1015
2015-12-04T11:44:32.012Z,1015
2015-12-04T11:45:31.951Z,1014.9
2015-12-04T11:46:31.907Z,1014.9
2015-12-04T11:47:31.829Z,1014.9
2015-12-04T11:48:31.787Z,1014.8
2015-12-04T11:49:31.727Z,1014.8
2015-12-04T11:50:31.683Z,1014.9
2015-12-04T11:51:31.624Z,1014.7
2015-12-04T11:52:31.563Z,1014.8
2015-12-04T11:53:31.519Z,1014.9
2015-12-04T11:54:31.475Z,1014.8
2015-12-04T11:55:31.416Z,1014.9
2015-12-04T11:56:31.353Z,1014.7
2015-12-04T11:57:31.310Z,1014.9
2015-12-04T11:58:31.251Z,1014.7
2015-12-04T11:59:31.051Z,1014.8
2015-12-04T12:00:31.148Z,1014.8
2015-12-04T12:01:31.087Z,1014.8
2015-12-04T12:02:31.060Z,1014.9
2015-12-04T12:03:30.982Z,1014.9
2015-12-04T12:04:30.923Z,1014.8
2015-12-04T12:05:30.863Z,1014.8
2015-12-04T12:06:30.820Z,1014.8
2015-12-04T12:07:30.744Z,1014.7
2015-12-04T12:08:30.700Z,1014.8
2015-12-04T12:09:30.672Z,1014.8
2015-12-04T12:10:30.581Z,1014.8
2015-12-04T12:11:30.520Z,1014.9
2015-12-04T12:12:30.477Z,1014.7
2015-12-04T12:13:30.417Z,1014.8
2015-12-04T12:14:30.576Z,1015
2015-12-04T12:15:30.314Z,1014.9
2015-12-04T12:16:30.253Z,1014.9
2015-12-04T12:17:30.209Z,1015
2015-12-04T12:18:30.147Z,1015
2015-12-04T12:19:30.103Z,1015.3
2015-12-04T12:20:30.028Z,1015.2
2015-12-04T12:21:30.171Z,1015.1
2015-12-04T12:22:29.923Z,1015.3
2015-12-04T12:23:30.067Z,1015.3
2015-12-04T12:24:29.804Z,1015.3
2015-12-04T12:25:29.995Z,1015.3
2015-12-04T12:26:29.717Z,1015.3
2015-12-04T12:27:29.656Z,1015.2
2015-12-04T12:28:29.597Z,1015.4
2015-12-04T12:29:29.553Z,1015.3
2015-12-04T12:30:29.493Z,1015.5
2015-12-04T12:31:29.433Z,1015.4